Time;durP1;ratioP1;P1;durP2;ratioP2;P2;SDS_P1;SDS_P2;PMS_P1;PMS_P2;Temp;Humidity;BMP_temperature;BMP_pressure;BME280_temperature;BME280_humidity;BME280_pressure;Samples;Min_cycle;Max_cycle;Signal;HPM_P1;HPM_P2
2021/09/19 00:02:18;;;;;;;5.50;5.00;;;;;;;11.83;100.00;98625.45;112182;1196;60946;-79
2021/09/19 00:04:45;;;;;;;5.40;4.90;;;;;;;11.80;100.00;98627.49;112143;1196;65067;-79
2021/09/19 00:07:11;;;;;;;5.00;4.30;;;;;;;11.70;100.00;98626.12;112137;1195;61071;-81
2021/09/19 00:09:38;;;;;;;4.50;4.10;;;;;;;11.60;100.00;98630.32;112232;1196;61040;-79
2021/09/19 00:12:06;;;;;;;5.20;4.70;;;;;;;11.48;100.00;98634.39;112270;1194;66018;-79
2021/09/19 00:14:34;;;;;;;6.50;5.10;;;;;;;11.39;100.00;98632.64;112291;1195;61042;-79
2021/09/19 00:17:01;;;;;;;6.60;5.30;;;;;;;11.30;100.00;98636.91;112180;1196;64657;-79
2021/09/19 00:19:28;;;;;;;6.10;5.50;;;;;;;11.23;100.00;98639.00;112233;1193;60986;-79
2021/09/19 00:21:55;;;;;;;6.50;5.90;;;;;;;11.15;100.00;98639.39;112219;1195;61052;-79
2021/09/19 00:24:23;;;;;;;8.00;6.30;;;;;;;11.08;100.00;98639.39;112280;1196;64747;-79
2021/09/19 00:26:50;;;;;;;7.40;6.70;;;;;;;11.02;100.00;98641.61;112195;1194;60975;-79
2021/09/19 00:29:17;;;;;;;6.80;6.20;;;;;;;10.97;100.00;98645.49;112181;1195;63993;-79
2021/09/19 00:31:44;;;;;;;6.70;6.00;;;;;;;10.92;100.00;98646.27;112082;1195;61063;-79
2021/09/19 00:34:10;;;;;;;6.60;6.00;;;;;;;10.89;100.00;98647.76;112143;1195;62467;-79
2021/09/19 00:36:37;;;;;;;8.10;6.30;;;;;;;10.85;100.00;98646.07;112171;1196;66135;-79
2021/09/19 00:39:04;;;;;;;6.70;6.00;;;;;;;10.83;100.00;98649.40;112118;1197;61338;-79
2021/09/19 00:41:31;;;;;;;6.10;5.50;;;;;;;10.82;100.00;98650.37;112147;1194;65047;-79
2021/09/19 00:43:57;;;;;;;6.40;5.70;;;;;;;10.82;100.00;98649.85;112157;1196;61045;-79
2021/09/19 00:46:24;;;;;;;7.30;6.20;;;;;;;10.83;100.00;98653.86;112168;1195;61156;-79
2021/09/19 00:48:50;;;;;;;6.40;5.80;;;;;;;10.84;100.00;98656.26;112203;1195;64668;-79
2021/09/19 00:51:17;;;;;;;7.20;6.50;;;;;;;10.83;100.00;98661.19;112155;1195;61065;-79
2021/09/19 00:53:45;;;;;;;6.70;6.10;;;;;;;10.82;100.00;98664.61;112198;1194;65020;-79
2021/09/19 00:56:22;;;;;;;7.80;6.80;;;;;;;10.82;100.00;98669.23;112205;1194;60960;-79
2021/09/19 00:58:52;;;;;;;8.10;7.30;;;;;;;10.84;100.00;98671.80;112195;1195;61033;-79
2021/09/19 01:01:20;;;;;;;9.00;8.10;;;;;;;10.83;100.00;98675.38;112153;1195;65769;-80
2021/09/19 01:03:47;;;;;;;10.70;9.50;;;;;;;10.83;100.00;98675.91;112147;1194;61091;-79
2021/09/19 01:06:15;;;;;;;14.30;12.70;;;;;;;10.83;100.00;98676.27;112161;1195;63843;-79
2021/09/19 01:08:44;;;;;;;13.10;11.80;;;;;;;10.81;100.00;98673.38;112177;1195;61215;-79
2021/09/19 01:11:15;;;;;;;14.10;12.70;;;;;;;10.79;100.00;98672.65;112211;1187;60982;-79
2021/09/19 01:13:43;;;;;;;15.50;14.00;;;;;;;10.76;100.00;98667.85;112195;1196;64848;-79
2021/09/19 01:16:11;;;;;;;17.00;15.30;;;;;;;10.77;100.00;98669.40;112150;1196;61643;-79
2021/09/19 01:18:42;;;;;;;18.20;15.40;;;;;;;10.80;100.00;98668.70;112152;1194;64041;-79
2021/09/19 01:21:11;;;;;;;17.30;15.00;;;;;;;10.81;100.00;98672.91;112191;1188;61084;-80
2021/09/19 01:23:39;;;;;;;18.80;16.50;;;;;;;10.77;100.00;98672.26;111927;1196;61059;-79
2021/09/19 01:26:06;;;;;;;17.70;15.90;;;;;;;10.74;100.00;98673.14;112265;1194;64653;-79
2021/09/19 01:28:33;;;;;;;19.40;16.10;;;;;;;10.73;100.00;98671.31;112161;1196;61045;-79
2021/09/19 01:31:00;;;;;;;17.00;15.30;;;;;;;10.72;100.00;98671.57;112171;1195;63996;-79
2021/09/19 01:33:27;;;;;;;16.50;14.20;;;;;;;10.69;100.00;98668.17;112145;1195;61065;-79
2021/09/19 01:35:57;;;;;;;16.60;14.20;;;;;;;10.70;100.00;98668.98;112177;1196;60969;-79
2021/09/19 01:38:24;;;;;;;14.80;13.30;;;;;;;10.72;100.00;98669.04;112151;1195;67067;-80
2021/09/19 01:40:51;;;;;;;12.60;11.40;;;;;;;10.74;100.00;98669.46;111732;1196;61059;-80
2021/09/19 01:43:17;;;;;;;11.90;10.70;;;;;;;10.71;100.00;98668.20;112059;1196;63843;-80
2021/09/19 01:45:44;;;;;;;12.80;11.60;;;;;;;10.69;100.00;98671.06;112082;1195;60984;-80
2021/09/19 01:48:11;;;;;;;13.90;11.80;;;;;;;10.68;100.00;98673.41;112177;1195;61032;-81
2021/09/19 01:50:37;;;;;;;12.40;11.20;;;;;;;10.69;100.00;98680.64;112195;1196;66681;-81
2021/09/19 01:53:05;;;;;;;13.80;12.40;;;;;;;10.69;100.00;98682.09;112222;1195;61039;-79
2021/09/19 01:55:32;;;;;;;14.50;13.10;;;;;;;10.69;100.00;98679.79;112259;1196;63735;-80
2021/09/19 01:57:59;;;;;;;13.80;12.00;;;;;;;10.70;100.00;98683.08;112010;1193;61061;-79
2021/09/19 02:00:26;;;;;;;13.10;11.80;;;;;;;10.72;100.00;98680.64;112199;1187;61024;-80
2021/09/19 02:02:53;;;;;;;13.40;12.00;;;;;;;10.74;100.00;98684.02;112270;1195;65927;-80
2021/09/19 02:05:21;;;;;;;13.10;11.90;;;;;;;10.74;100.00;98685.62;112244;1180;61007;-80
2021/09/19 02:07:47;;;;;;;14.70;13.10;;;;;;;10.72;100.00;98688.44;112253;1196;64967;-80
2021/09/19 02:10:15;;;;;;;15.30;13.50;;;;;;;10.69;100.00;98689.17;112255;1194;61085;-81
2021/09/19 02:12:43;;;;;;;15.90;12.50;;;;;;;10.65;100.00;98688.60;112241;1195;60973;-81
2021/09/19 02:15:12;;;;;;;13.20;11.80;;;;;;;10.61;100.00;98690.66;112254;1196;64330;-81
2021/09/19 02:17:39;;;;;;;11.40;10.20;;;;;;;10.58;100.00;98688.76;112291;1194;61038;-81
2021/09/19 02:20:08;;;;;;;10.10;9.00;;;;;;;10.52;100.00;98693.23;112130;1195;65163;-81
2021/09/19 02:22:35;;;;;;;8.80;7.90;;;;;;;10.44;100.00;98689.73;112230;1194;61036;-80
2021/09/19 02:25:02;;;;;;;8.60;7.00;;;;;;;10.34;99.77;98695.20;112243;1196;61013;-81
2021/09/19 02:27:29;;;;;;;7.80;7.00;;;;;;;10.23;99.41;98700.06;112261;1195;66024;-82
2021/09/19 02:29:56;;;;;;;8.20;7.00;;;;;;;10.14;99.13;98704.80;112288;1196;61741;-81
2021/09/19 02:32:23;;;;;;;7.60;6.70;;;;;;;10.04;99.12;98707.60;112318;1195;63703;-80
2021/09/19 02:34:49;;;;;;;9.60;7.50;;;;;;;9.94;98.71;98712.01;112262;1195;61007;-82
2021/09/19 02:37:16;;;;;;;7.30;6.60;;;;;;;9.85;98.66;98712.85;112245;1195;61065;-80
2021/09/19 02:39:43;;;;;;;8.30;7.20;;;;;;;9.75;97.93;98713.54;112274;1196;66987;-82
2021/09/19 02:42:09;;;;;;;7.40;6.60;;;;;;;9.65;97.57;98717.40;112257;1195;61080;-82
2021/09/19 02:44:36;;;;;;;9.30;7.50;;;;;;;9.56;97.06;98717.96;112207;1194;63877;-82
2021/09/19 02:47:04;;;;;;;9.40;6.90;;;;;;;9.49;97.42;98720.20;112274;1195;61410;-80
2021/09/19 02:49:30;;;;;;;10.50;7.40;;;;;;;9.46;97.48;98722.71;112261;1194;61048;-80
2021/09/19 02:51:57;;;;;;;8.30;7.40;;;;;;;9.42;97.03;98722.98;111906;1196;64310;-80
2021/09/19 02:54:24;;;;;;;8.90;8.00;;;;;;;9.36;97.05;98726.77;112241;1195;61040;-80
2021/09/19 02:56:50;;;;;;;10.00;7.80;;;;;;;9.32;97.06;98726.31;112150;1195;62685;-80
2021/09/19 02:59:18;;;;;;;10.00;8.90;;;;;;;9.30;96.87;98733.02;112209;1194;61009;-80
2021/09/19 03:01:45;;;;;;;9.10;8.20;;;;;;;9.27;97.00;98734.12;111859;1196;61011;-80
2021/09/19 03:04:12;;;;;;;9.80;8.80;;;;;;;9.23;96.89;98736.30;112244;1195;66014;-81
2021/09/19 03:06:39;;;;;;;10.80;9.20;;;;;;;9.19;96.91;98741.67;112141;1196;61401;-80
2021/09/19 03:09:06;;;;;;;9.30;8.40;;;;;;;9.18;97.08;98736.09;112210;1196;63721;-80
2021/09/19 03:11:33;;;;;;;9.40;8.50;;;;;;;9.15;96.73;98740.17;112209;1195;61065;-79
2021/09/19 03:13:59;;;;;;;10.80;9.50;;;;;;;9.12;96.71;98738.56;112245;1194;60982;-79
2021/09/19 03:16:26;;;;;;;15.20;9.00;;;;;;;9.12;97.01;98740.36;112233;1195;67025;-79
2021/09/19 03:18:52;;;;;;;10.20;9.10;;;;;;;9.13;97.13;98739.27;112200;1194;60972;-80
2021/09/19 03:21:19;;;;;;;10.00;8.00;;;;;;;9.15;97.16;98739.86;112238;1195;65009;-79
2021/09/19 03:23:46;;;;;;;10.30;9.20;;;;;;;9.14;96.85;98740.23;112198;1193;61036;-79
2021/09/19 03:26:12;;;;;;;10.30;9.20;;;;;;;9.12;96.50;98740.73;112169;1195;61020;-79
2021/09/19 03:28:39;;;;;;;11.40;9.40;;;;;;;9.10;96.34;98740.88;112189;1187;66030;-79
2021/09/19 03:31:06;;;;;;;12.10;10.80;;;;;;;9.07;96.23;98741.06;112216;1196;60979;-79
2021/09/19 03:33:33;;;;;;;12.90;11.60;;;;;;;9.06;96.23;98740.94;112152;1195;64126;-79
2021/09/19 03:35:59;;;;;;;13.20;11.90;;;;;;;9.06;96.50;98748.38;112211;1196;61100;-79
2021/09/19 03:38:26;;;;;;;12.80;11.60;;;;;;;9.06;96.39;98750.67;112237;1195;61023;-79
2021/09/19 03:40:53;;;;;;;12.60;11.20;;;;;;;9.05;96.35;98753.06;112291;1196;66085;-79
2021/09/19 03:43:19;;;;;;;13.20;11.80;;;;;;;9.06;96.55;98755.67;112244;1194;61165;-79
2021/09/19 03:45:46;;;;;;;12.80;11.50;;;;;;;9.08;96.64;98753.23;112153;1195;64988;-80
2021/09/19 03:48:12;;;;;;;11.40;9.90;;;;;;;9.10;96.64;98750.77;112257;1195;61061;-80
2021/09/19 03:50:39;;;;;;;12.80;11.10;;;;;;;9.13;96.64;98752.91;112226;1196;61465;-79
2021/09/19 03:53:06;;;;;;;12.10;10.90;;;;;;;9.14;96.55;98754.63;111904;1196;74867;-79
2021/09/19 03:55:32;;;;;;;13.40;12.00;;;;;;;9.13;96.06;98749.91;112240;1196;61058;-79
2021/09/19 03:58:00;;;;;;;14.70;13.10;;;;;;;9.10;95.77;98748.50;112193;1196;62760;-79
2021/09/19 04:00:28;;;;;;;13.90;12.50;;;;;;;9.07;95.90;98744.95;112247;1195;61062;-80
2021/09/19 04:02:55;;;;;;;12.80;11.50;;;;;;;9.07;96.30;98744.24;112217;1194;61061;-80
2021/09/19 04:05:21;;;;;;;12.80;11.60;;;;;;;9.07;96.29;98747.25;112224;1195;64548;-80
2021/09/19 04:07:48;;;;;;;13.40;12.10;;;;;;;9.07;96.19;98746.38;112271;1196;61055;-80
2021/09/19 04:10:15;;;;;;;13.70;12.40;;;;;;;9.10;96.43;98744.41;112262;1197;63802;-80
2021/09/19 04:12:42;;;;;;;13.40;12.00;;;;;;;9.13;96.46;98747.02;112228;1195;61037;-80
2021/09/19 04:15:10;;;;;;;15.60;13.90;;;;;;;9.16;96.46;98746.16;112240;1194;60995;-80
2021/09/19 04:17:37;;;;;;;15.20;13.60;;;;;;;9.19;96.42;98745.90;112184;1196;67184;-80
2021/09/19 04:20:05;;;;;;;15.40;13.90;;;;;;;9.20;96.40;98745.16;112214;1180;61062;-80
2021/09/19 04:22:32;;;;;;;16.10;14.40;;;;;;;9.18;96.26;98745.63;112276;1195;63820;-80
2021/09/19 04:25:00;;;;;;;15.60;13.90;;;;;;;9.17;96.39;98745.21;112239;1195;61091;-80
2021/09/19 04:27:26;;;;;;;17.90;14.40;;;;;;;9.15;96.30;98747.80;112259;1194;61065;-80
2021/09/19 04:29:53;;;;;;;15.50;13.60;;;;;;;9.15;96.12;98748.70;112212;1195;65808;-80
2021/09/19 04:32:21;;;;;;;15.50;13.70;;;;;;;9.15;96.21;98746.36;112166;1194;61148;-80
2021/09/19 04:34:48;;;;;;;15.40;13.50;;;;;;;9.15;96.22;98745.13;112214;1196;63883;-80
2021/09/19 04:37:16;;;;;;;13.90;12.50;;;;;;;9.16;96.28;98747.03;112246;1193;61064;-80
2021/09/19 04:39:44;;;;;;;14.20;12.50;;;;;;;9.16;96.17;98745.45;112256;1194;60952;-80
2021/09/19 04:42:13;;;;;;;15.70;13.90;;;;;;;9.16;96.14;98746.16;112281;1194;65989;-80
2021/09/19 04:44:43;;;;;;;15.40;13.90;;;;;;;9.15;96.07;98750.84;112314;1196;61043;-80
2021/09/19 04:47:10;;;;;;;13.70;12.30;;;;;;;9.15;96.20;98753.69;112230;1195;64175;-80
2021/09/19 04:49:37;;;;;;;13.80;12.10;;;;;;;9.15;96.32;98756.33;112143;1195;61094;-80
2021/09/19 04:52:04;;;;;;;12.40;11.10;;;;;;;9.15;96.24;98759.17;112267;1193;60982;-81
2021/09/19 04:54:30;;;;;;;13.90;12.50;;;;;;;9.16;96.41;98761.05;112228;1196;64733;-79
2021/09/19 04:56:57;;;;;;;13.10;11.60;;;;;;;9.19;96.55;98764.54;112235;1195;60914;-80
2021/09/19 04:59:24;;;;;;;14.70;12.00;;;;;;;9.24;96.49;98767.79;112235;1195;65008;-80
2021/09/19 05:01:51;;;;;;;12.20;10.90;;;;;;;9.28;96.60;98769.65;112239;1193;61065;-80
2021/09/19 05:04:18;;;;;;;14.10;12.60;;;;;;;9.29;96.16;98769.91;112260;1194;61029;-80
2021/09/19 05:06:44;;;;;;;14.40;13.00;;;;;;;9.28;95.88;98773.92;112231;1195;66007;-80
2021/09/19 05:09:11;;;;;;;13.70;12.10;;;;;;;9.27;95.89;98773.83;112276;1194;61132;-80
2021/09/19 05:11:38;;;;;;;14.80;11.80;;;;;;;9.22;95.84;98775.17;112106;1196;65010;-80
2021/09/19 05:14:05;;;;;;;13.60;12.30;;;;;;;9.19;95.90;98772.20;112233;1195;60988;-80
2021/09/19 05:16:31;;;;;;;13.30;11.80;;;;;;;9.17;96.00;98774.22;112195;1194;60937;-80
2021/09/19 05:18:58;;;;;;;13.20;11.80;;;;;;;9.17;95.90;98775.30;112233;1195;64500;-80
2021/09/19 05:21:25;;;;;;;14.30;12.70;;;;;;;9.16;95.77;98778.56;112246;1195;61058;-80
2021/09/19 05:23:52;;;;;;;13.50;12.10;;;;;;;9.18;95.88;98782.02;112166;1196;64722;-81
2021/09/19 05:26:18;;;;;;;13.40;11.90;;;;;;;9.18;95.88;98781.83;112208;1195;61065;-80
2021/09/19 05:28:45;;;;;;;15.80;13.50;;;;;;;9.16;96.03;98785.47;112238;1196;60982;-81
2021/09/19 05:31:15;;;;;;;15.30;13.80;;;;;;;9.17;96.09;98789.65;112249;1194;67087;-79
2021/09/19 05:33:42;;;;;;;14.70;13.10;;;;;;;9.18;96.11;98792.58;112259;1195;61029;-81
2021/09/19 05:36:08;;;;;;;15.20;13.50;;;;;;;9.16;95.79;98794.32;112128;1195;64703;-81
2021/09/19 05:38:35;;;;;;;14.20;11.90;;;;;;;9.09;95.75;98800.26;112201;1196;61136;-80
2021/09/19 05:41:02;;;;;;;12.40;10.90;;;;;;;9.04;95.83;98796.04;112250;1196;61073;-80
2021/09/19 05:43:28;;;;;;;13.50;11.60;;;;;;;8.99;95.90;98794.76;112119;1195;64358;-84
2021/09/19 05:45:55;;;;;;;12.90;10.30;;;;;;;8.96;95.95;98791.74;112290;1195;61026;-80
2021/09/19 05:48:21;;;;;;;10.60;9.40;;;;;;;8.94;96.09;98796.45;112165;1195;62627;-82
2021/09/19 05:50:48;;;;;;;11.30;9.50;;;;;;;8.93;95.85;98803.10;112219;1194;61543;-82
2021/09/19 05:53:15;;;;;;;8.80;7.90;;;;;;;8.93;95.98;98803.23;112196;1195;61143;-81
2021/09/19 05:55:41;;;;;;;10.30;8.60;;;;;;;8.96;95.77;98804.81;112098;1195;66033;-81
2021/09/19 05:58:08;;;;;;;9.20;7.30;;;;;;;8.97;95.67;98807.80;112245;1195;61055;-80
2021/09/19 06:00:35;;;;;;;9.20;7.20;;;;;;;9.00;95.92;98803.02;112256;1196;62567;-80
2021/09/19 06:03:01;;;;;;;9.20;7.60;;;;;;;9.05;95.89;98803.95;112144;1195;61142;-80
2021/09/19 06:05:28;;;;;;;8.20;6.90;;;;;;;9.07;95.48;98806.08;112252;1193;59933;-80
2021/09/19 06:07:55;;;;;;;8.40;6.80;;;;;;;9.06;95.33;98806.32;112202;1196;65701;-80
2021/09/19 06:10:21;;;;;;;8.10;7.00;;;;;;;9.06;95.44;98805.62;112292;1195;61007;-80
2021/09/19 06:12:48;;;;;;;8.90;7.20;;;;;;;9.08;95.24;98805.19;112209;1194;64760;-80
2021/09/19 06:15:15;;;;;;;6.90;5.70;;;;;;;9.10;95.33;98804.86;112268;1196;61065;-80
2021/09/19 06:17:42;;;;;;;8.40;6.40;;;;;;;9.15;95.41;98803.80;112108;1196;61081;-80
2021/09/19 06:20:08;;;;;;;8.90;7.30;;;;;;;9.22;95.37;98802.81;112222;1194;66020;-80
2021/09/19 06:22:35;;;;;;;6.50;5.80;;;;;;;9.28;95.31;98805.27;112251;1195;61036;-80
2021/09/19 06:25:02;;;;;;;6.70;6.00;;;;;;;9.32;94.89;98803.98;112208;1195;63985;-80
2021/09/19 06:27:29;;;;;;;7.20;6.50;;;;;;;9.34;94.50;98802.42;112238;1196;61027;-80
2021/09/19 06:29:56;;;;;;;7.90;7.10;;;;;;;9.35;94.45;98803.05;112230;1195;60988;-80
2021/09/19 06:32:22;;;;;;;6.70;6.10;;;;;;;9.37;94.23;98806.46;112295;1195;65685;-80
2021/09/19 06:34:49;;;;;;;7.90;6.80;;;;;;;9.41;94.45;98808.49;112296;1196;61068;-82
2021/09/19 06:37:16;;;;;;;7.80;6.70;;;;;;;9.47;94.47;98807.80;112217;1195;63889;-80
2021/09/19 06:39:42;;;;;;;7.90;7.10;;;;;;;9.51;94.37;98809.64;112199;1194;60975;-80
2021/09/19 06:42:09;;;;;;;8.80;7.10;;;;;;;9.57;94.40;98808.34;112251;1194;60959;-80
2021/09/19 06:44:36;;;;;;;8.30;7.10;;;;;;;9.65;94.33;98809.22;112228;1196;64660;-80
2021/09/19 06:47:03;;;;;;;10.60;7.90;;;;;;;9.69;94.10;98809.20;112250;1196;61023;-80
2021/09/19 06:49:29;;;;;;;9.50;7.70;;;;;;;9.71;93.93;98806.90;112115;1196;64021;-79
2021/09/19 06:51:56;;;;;;;9.80;8.10;;;;;;;9.76;93.73;98808.48;112109;1195;61052;-80
2021/09/19 06:54:23;;;;;;;8.20;7.40;;;;;;;9.84;93.64;98807.07;112144;1196;61715;-80
2021/09/19 06:56:49;;;;;;;11.00;8.50;;;;;;;9.88;93.17;98811.61;112219;1196;66959;-80
2021/09/19 06:59:16;;;;;;;7.80;6.90;;;;;;;9.88;93.09;98814.29;112119;1195;61057;-80
2021/09/19 07:01:44;;;;;;;8.10;7.30;;;;;;;9.88;92.94;98814.07;112210;1195;63907;-80
2021/09/19 07:04:10;;;;;;;7.50;6.70;;;;;;;9.88;92.85;98812.32;112269;1195;61151;-80
2021/09/19 07:06:37;;;;;;;7.00;6.30;;;;;;;9.88;93.08;98811.05;112247;1194;61048;-80
2021/09/19 07:09:04;;;;;;;6.80;6.10;;;;;;;9.94;93.34;98813.52;112110;1196;65733;-80
2021/09/19 07:11:31;;;;;;;7.50;6.80;;;;;;;10.00;93.34;98814.89;112152;1179;61068;-80
2021/09/19 07:13:58;;;;;;;8.30;6.70;;;;;;;9.99;93.25;98816.52;112147;1196;62780;-80
2021/09/19 07:16:25;;;;;;;8.60;7.60;;;;;;;9.98;93.16;98823.21;112234;1186;62628;-80
2021/09/19 07:18:51;;;;;;;10.80;9.70;;;;;;;9.94;93.07;98827.04;112294;1195;61144;-80
2021/09/19 07:21:18;;;;;;;11.50;10.30;;;;;;;9.89;92.90;98825.38;112074;1195;66179;-82
2021/09/19 07:23:45;;;;;;;13.20;11.20;;;;;;;9.82;92.63;98830.09;112243;1195;60995;-82
2021/09/19 07:26:11;;;;;;;10.00;9.00;;;;;;;9.78;92.48;98830.21;111908;1196;64704;-80
2021/09/19 07:28:38;;;;;;;9.40;8.50;;;;;;;9.75;92.48;98830.80;112211;1196;61010;-80
2021/09/19 07:31:05;;;;;;;12.60;10.80;;;;;;;9.73;92.53;98825.41;112269;1195;61143;-81
2021/09/19 07:33:33;;;;;;;11.70;10.50;;;;;;;9.75;92.66;98826.69;112253;1195;64473;-80
2021/09/19 07:36:00;;;;;;;10.90;9.20;;;;;;;9.77;92.66;98827.46;112248;1195;60969;-80
2021/09/19 07:38:26;;;;;;;10.40;9.30;;;;;;;9.85;92.60;98826.00;112156;1196;62712;-80
2021/09/19 07:40:53;;;;;;;12.30;11.10;;;;;;;9.97;92.55;98828.46;112240;1195;60979;-80
2021/09/19 07:43:20;;;;;;;12.60;11.30;;;;;;;10.06;92.53;98827.27;112097;1196;61061;-80
2021/09/19 07:45:47;;;;;;;12.30;11.00;;;;;;;10.09;92.15;98829.21;112245;1195;64820;-80
2021/09/19 07:48:14;;;;;;;11.80;10.60;;;;;;;10.06;92.12;98829.41;112130;1196;61069;-80
2021/09/19 07:50:42;;;;;;;12.00;10.20;;;;;;;10.07;92.07;98833.74;112218;1195;63695;-80
2021/09/19 07:53:09;;;;;;;11.70;10.50;;;;;;;10.09;91.70;98837.04;112268;1195;61052;-81
2021/09/19 07:55:36;;;;;;;13.60;10.80;;;;;;;10.15;91.56;98837.13;112103;1195;61110;-80
2021/09/19 07:58:03;;;;;;;12.80;10.50;;;;;;;10.25;91.06;98832.55;112054;1195;64681;-81
2021/09/19 08:00:30;;;;;;;15.50;13.90;;;;;;;10.38;91.11;98835.61;112246;1195;61029;-80
2021/09/19 08:02:57;;;;;;;15.10;11.40;;;;;;;10.57;90.49;98835.91;112087;1196;62710;-80
2021/09/19 08:05:24;;;;;;;11.80;9.60;;;;;;;10.75;89.82;98829.27;112210;1196;61007;-80
2021/09/19 08:07:53;;;;;;;12.10;10.10;;;;;;;11.02;88.81;98830.73;112263;1195;61075;-81
2021/09/19 08:10:20;;;;;;;10.20;9.10;;;;;;;11.24;88.19;98829.35;112223;1195;66531;-81
2021/09/19 08:12:48;;;;;;;9.60;8.50;;;;;;;11.54;88.08;98831.81;112078;1196;61154;-81
2021/09/19 08:15:18;;;;;;;10.30;8.80;;;;;;;11.87;87.53;98831.82;112116;1195;63660;-81
2021/09/19 08:17:47;;;;;;;9.50;7.90;;;;;;;12.16;87.22;98827.41;112256;1195;61040;-81
2021/09/19 08:20:16;;;;;;;10.10;7.90;;;;;;;12.20;86.64;98823.35;112170;1196;61109;-81
2021/09/19 08:22:44;;;;;;;12.40;8.30;;;;;;;12.12;86.80;98830.39;112264;1195;66120;-81
2021/09/19 08:25:13;;;;;;;9.20;8.30;;;;;;;11.99;86.71;98827.04;112040;1195;60963;-81
2021/09/19 08:27:41;;;;;;;9.00;8.00;;;;;;;11.92;85.60;98827.45;112144;1195;63146;-81
2021/09/19 08:30:26;;;;;;;9.00;6.90;;;;;;;11.78;84.84;98831.59;112132;1196;61001;-81
2021/09/19 08:32:53;;;;;;;6.00;5.40;;;;;;;11.67;83.71;98832.25;112010;1196;60980;-80
2021/09/19 08:35:20;;;;;;;6.40;5.50;;;;;;;11.63;83.72;98831.85;112256;1194;65704;-80
2021/09/19 08:37:47;;;;;;;9.50;7.00;;;;;;;11.66;82.94;98831.09;112159;1195;61045;-80
2021/09/19 08:40:32;;;;;;;7.70;6.50;;;;;;;11.76;83.11;98831.64;112218;1195;62317;-81
2021/09/19 08:43:16;;;;;;;7.00;6.30;;;;;;;11.96;82.38;98828.33;112203;1195;60934;-83
2021/09/19 08:45:48;;;;;;;7.50;6.70;;;;;;;12.15;81.94;98827.30;112288;1194;61069;-79
2021/09/19 08:48:31;;;;;;;7.20;6.30;;;;;;;12.32;81.56;98825.46;112288;1196;67044;-80
2021/09/19 08:51:13;;;;;;;8.50;6.90;;;;;;;12.61;82.08;98822.70;112104;1196;61575;-83
2021/09/19 08:53:40;;;;;;;7.80;7.00;;;;;;;12.88;81.27;98822.17;112106;1195;62707;-82
2021/09/19 08:56:08;;;;;;;7.60;6.80;;;;;;;13.05;80.86;98820.80;112082;1196;61380;-81
2021/09/19 08:58:39;;;;;;;8.40;7.60;;;;;;;13.26;81.78;98818.45;112286;1194;61007;-83
2021/09/19 09:01:08;;;;;;;7.70;6.90;;;;;;;13.42;80.21;98821.27;112213;1196;65699;-82
2021/09/19 09:03:37;;;;;;;;;;;;;;;13.45;80.44;98824.20;112280;1195;61071;-81
2021/09/19 09:06:07;;;;;;;7.20;6.30;;;;;;;13.48;79.60;98826.67;112224;1195;63680;-82
2021/09/19 09:08:35;;;;;;;8.00;6.60;;;;;;;13.45;79.58;98826.67;112220;1195;61008;-82
2021/09/19 09:11:05;;;;;;;6.50;5.70;;;;;;;13.45;79.98;98825.08;112239;1195;61024;-80
2021/09/19 09:13:36;;;;;;;6.80;6.10;;;;;;;13.45;79.82;98826.00;112250;1196;64814;-81
2021/09/19 09:16:17;;;;;;;7.10;6.40;;;;;;;13.49;79.70;98826.07;112278;1195;61103;-81
2021/09/19 09:18:53;;;;;;;8.50;6.00;;;;;;;13.57;79.51;98824.98;112245;1194;64023;-81
2021/09/19 09:21:28;;;;;;;5.90;5.40;;;;;;;13.58;78.07;98822.25;112077;1195;61042;-81
2021/09/19 09:24:04;;;;;;;5.70;5.00;;;;;;;13.53;78.10;98820.84;112228;1196;61081;-81
2021/09/19 09:26:33;;;;;;;5.80;5.10;;;;;;;13.60;77.36;98818.70;112228;1195;66210;-81
2021/09/19 09:29:14;;;;;;;7.00;5.20;;;;;;;13.65;76.57;98820.27;112210;1196;61152;-81
2021/09/19 09:31:52;;;;;;;6.60;5.50;;;;;;;13.68;76.52;98823.55;112075;1195;62657;-81
2021/09/19 09:34:29;;;;;;;7.40;4.90;;;;;;;13.74;76.23;98824.31;112131;1195;61049;-81
2021/09/19 09:37:03;;;;;;;6.30;5.10;;;;;;;13.78;76.21;98824.52;112077;1188;61126;-81
2021/09/19 09:39:43;;;;;;;6.60;4.50;;;;;;;13.86;75.48;98829.94;112270;1187;66003;-81
2021/09/19 09:42:14;;;;;;;5.10;4.50;;;;;;;13.89;75.44;98834.52;112315;1195;61109;-81
2021/09/19 09:44:49;;;;;;;5.20;4.70;;;;;;;14.03;75.87;98831.91;112211;1196;62737;-81
2021/09/19 09:47:22;;;;;;;7.20;4.20;;;;;;;14.22;75.92;98832.13;112222;1195;61042;-81
2021/09/19 09:49:52;;;;;;;5.90;4.10;;;;;;;14.27;74.27;98834.19;112257;1196;60979;-81
2021/09/19 09:52:22;;;;;;;5.40;4.10;;;;;;;14.09;73.90;98829.27;112256;1196;66025;-81
2021/09/19 09:54:49;;;;;;;;;;;;;;;13.91;74.50;98828.44;112284;1196;60978;-80
2021/09/19 09:57:22;;;;;;;5.60;4.20;;;;;;;13.85;74.66;98827.88;112219;1195;62629;-81
2021/09/19 09:59:50;;;;;;;5.80;4.20;;;;;;;13.75;74.07;98826.59;112235;1195;61071;-81
2021/09/19 10:02:19;;;;;;;4.90;4.40;;;;;;;13.55;74.31;98828.02;112297;1195;60959;-81
2021/09/19 10:04:47;;;;;;;5.30;4.00;;;;;;;13.44;74.43;98825.02;112270;1196;64574;-81
2021/09/19 10:07:15;;;;;;;5.10;4.50;;;;;;;13.37;74.30;98828.73;112113;1195;61103;-80
2021/09/19 10:09:43;;;;;;;5.50;4.30;;;;;;;13.37;74.43;98830.23;112102;1196;63700;-80
2021/09/19 10:12:12;;;;;;;7.60;4.40;;;;;;;13.34;74.95;98831.73;112069;1196;61009;-80
2021/09/19 10:14:49;;;;;;;5.50;4.90;;;;;;;13.30;75.56;98828.80;112326;1194;61049;-80
2021/09/19 10:17:20;;;;;;;;;;;;;;;13.29;76.17;98833.35;112108;1196;64558;-82
2021/09/19 10:19:47;;;;;;;4.20;3.70;;;;;;;13.31;76.10;98833.34;112237;1195;61083;-80
2021/09/19 10:22:26;;;;;;;7.10;4.10;;;;;;;13.31;75.47;98833.73;112004;1195;64713;-80
2021/09/19 10:24:53;;;;;;;5.30;4.20;;;;;;;13.23;75.28;98834.58;112193;1194;60985;-80
2021/09/19 10:27:23;;;;;;;5.30;4.80;;;;;;;13.12;74.94;98837.73;112271;1194;61043;-80
2021/09/19 10:29:58;;;;;;;4.90;4.40;;;;;;;12.96;74.95;98833.82;112239;1196;66137;-81
2021/09/19 10:32:41;;;;;;;6.40;4.60;;;;;;;12.87;75.33;98841.99;111939;1195;61071;-81
2021/09/19 10:35:20;;;;;;;6.00;5.40;;;;;;;12.82;75.69;98846.40;112296;1196;64018;-81
2021/09/19 10:37:51;;;;;;;8.10;7.20;;;;;;;12.78;76.22;98843.81;112286;1196;61053;-81
2021/09/19 10:40:31;;;;;;;7.10;5.80;;;;;;;12.77;76.54;98846.79;112294;1195;61046;-80
2021/09/19 10:42:59;;;;;;;7.40;6.60;;;;;;;12.70;76.96;98848.52;112232;1195;65703;-80
2021/09/19 10:45:43;;;;;;;9.50;8.60;;;;;;;12.64;77.49;98851.51;112213;1195;60967;-80
2021/09/19 10:48:29;;;;;;;10.30;9.20;;;;;;;12.54;78.11;98851.17;112277;1195;64011;-80
2021/09/19 10:51:05;;;;;;;11.70;10.50;;;;;;;12.44;78.57;98850.91;112231;1195;61522;-80
2021/09/19 10:53:32;;;;;;;9.70;8.70;;;;;;;12.36;79.00;98852.59;112283;1195;61048;-80
2021/09/19 10:56:04;;;;;;;9.50;8.60;;;;;;;12.25;78.91;98855.55;112300;1195;66051;-82
2021/09/19 10:58:33;;;;;;;11.70;9.70;;;;;;;12.21;79.15;98854.09;112290;1196;61082;-80
2021/09/19 11:01:10;;;;;;;9.50;8.60;;;;;;;12.19;78.40;98855.16;112327;1194;64993;-80
2021/09/19 11:03:40;;;;;;;9.50;8.50;;;;;;;12.14;78.40;98858.56;112158;1196;61055;-81
2021/09/19 11:06:21;;;;;;;11.50;9.60;;;;;;;12.20;78.94;98860.05;112256;1195;60952;-81
2021/09/19 11:08:48;;;;;;;9.80;8.80;;;;;;;12.33;78.66;98864.77;111974;1195;67105;-81
2021/09/19 11:11:21;;;;;;;12.60;11.00;;;;;;;12.39;78.33;98863.55;111954;1195;61068;-81
2021/09/19 11:13:55;;;;;;;13.10;11.80;;;;;;;12.47;78.14;98862.60;112261;1196;63821;-80
2021/09/19 11:16:22;;;;;;;13.20;11.80;;;;;;;12.60;78.21;98861.28;112034;1195;61011;-80
2021/09/19 11:18:55;;;;;;;11.00;9.90;;;;;;;12.71;77.66;98858.27;112147;1196;61016;-81
2021/09/19 11:21:22;;;;;;;12.20;10.90;;;;;;;12.79;77.46;98854.98;112220;1195;68097;-81
2021/09/19 11:23:52;;;;;;;12.40;9.40;;;;;;;12.89;77.81;98852.89;112244;1195;61164;-81
2021/09/19 11:26:27;;;;;;;10.70;9.60;;;;;;;13.04;77.88;98851.95;112251;1194;64650;-81
2021/09/19 11:28:56;;;;;;;15.30;13.80;;;;;;;13.24;77.91;98849.95;112240;1195;61052;-81